sensor_id;sensor_type;location;lat;lon;timestamp;P1;durP1;ratioP1;P2;durP2;ratioP2
7320;SDS011;3701;49.346;8.798;2022-07-01T00:00:31;3.20;;;1.40;;
7320;SDS011;3701;49.346;8.798;2022-07-01T00:02:57;4.40;;;1.10;;
7320;SDS011;3701;49.346;8.798;2022-07-01T00:05:24;1.53;;;0.90;;
7320;SDS011;3701;49.346;8.798;2022-07-01T00:07:52;4.60;;;1.30;;
7320;SDS011;3701;49.346;8.798;2022-07-01T00:10:17;2.70;;;1.20;;
7320;SDS011;3701;49.346;8.798;2022-07-01T00:12:43;2.00;;;1.27;;
7320;SDS011;3701;49.346;8.798;2022-07-01T00:15:09;2.73;;;1.27;;
7320;SDS011;3701;49.346;8.798;2022-07-01T00:17:38;4.47;;;1.90;;
7320;SDS011;3701;49.346;8.798;2022-07-01T00:20:05;3.17;;;1.17;;
7320;SDS011;3701;49.346;8.798;2022-07-01T00:22:32;5.27;;;1.20;;
7320;SDS011;3701;49.346;8.798;2022-07-01T00:25:03;1.93;;;1.10;;
7320;SDS011;3701;49.346;8.798;2022-07-01T00:27:28;1.80;;;0.90;;
7320;SDS011;3701;49.346;8.798;2022-07-01T00:29:54;2.43;;;1.17;;
7320;SDS011;3701;49.346;8.798;2022-07-01T00:32:19;1.57;;;1.00;;
7320;SDS011;3701;49.346;8.798;2022-07-01T00:34:49;1.47;;;1.10;;
7320;SDS011;3701;49.346;8.798;2022-07-01T00:37:15;1.87;;;0.93;;
7320;SDS011;3701;49.346;8.798;2022-07-01T00:39:42;1.53;;;1.23;;
7320;SDS011;3701;49.346;8.798;2022-07-01T00:42:10;1.40;;;1.30;;
7320;SDS011;3701;49.346;8.798;2022-07-01T00:44:35;3.87;;;1.10;;
7320;SDS011;3701;49.346;8.798;2022-07-01T00:47:03;1.10;;;1.00;;
7320;SDS011;3701;49.346;8.798;2022-07-01T00:49:36;2.60;;;1.20;;
7320;SDS011;3701;49.346;8.798;2022-07-01T00:52:03;1.53;;;1.20;;
7320;SDS011;3701;49.346;8.798;2022-07-01T00:54:33;1.50;;;1.30;;
7320;SDS011;3701;49.346;8.798;2022-07-01T00:57:04;3.37;;;1.27;;
7320;SDS011;3701;49.346;8.798;2022-07-01T00:59:36;2.30;;;1.20;;
7320;SDS011;3701;49.346;8.798;2022-07-01T01:02:05;1.87;;;1.20;;
7320;SDS011;3701;49.346;8.798;2022-07-01T01:04:32;1.30;;;0.97;;
7320;SDS011;3701;49.346;8.798;2022-07-01T01:06:58;1.87;;;1.20;;
7320;SDS011;3701;49.346;8.798;2022-07-01T01:09:28;2.03;;;1.03;;
7320;SDS011;3701;49.346;8.798;2022-07-01T01:12:00;2.83;;;1.10;;
7320;SDS011;3701;49.346;8.798;2022-07-01T01:14:29;2.97;;;1.27;;
7320;SDS011;3701;49.346;8.798;2022-07-01T01:16:54;1.70;;;1.30;;
7320;SDS011;3701;49.346;8.798;2022-07-01T01:19:19;1.47;;;1.20;;
7320;SDS011;3701;49.346;8.798;2022-07-01T01:21:45;1.77;;;1.23;;
7320;SDS011;3701;49.346;8.798;2022-07-01T01:24:13;1.83;;;1.30;;
7320;SDS011;3701;49.346;8.798;2022-07-01T01:26:43;1.20;;;1.10;;
7320;SDS011;3701;49.346;8.798;2022-07-01T01:29:10;1.53;;;1.20;;
7320;SDS011;3701;49.346;8.798;2022-07-01T01:31:39;2.97;;;1.10;;
7320;SDS011;3701;49.346;8.798;2022-07-01T01:34:07;1.13;;;1.03;;
7320;SDS011;3701;49.346;8.798;2022-07-01T01:36:38;1.60;;;1.20;;
7320;SDS011;3701;49.346;8.798;2022-07-01T01:39:06;4.10;;;1.20;;
7320;SDS011;3701;49.346;8.798;2022-07-01T01:41:41;1.10;;;1.00;;
7320;SDS011;3701;49.346;8.798;2022-07-01T01:44:10;1.40;;;1.10;;
7320;SDS011;3701;49.346;8.798;2022-07-01T01:46:37;1.43;;;1.00;;
7320;SDS011;3701;49.346;8.798;2022-07-01T01:49:03;1.30;;;0.90;;
7320;SDS011;3701;49.346;8.798;2022-07-01T01:51:32;2.00;;;1.20;;
7320;SDS011;3701;49.346;8.798;2022-07-01T01:53:58;2.43;;;1.10;;
7320;SDS011;3701;49.346;8.798;2022-07-01T01:56:24;1.63;;;1.23;;
7320;SDS011;3701;49.346;8.798;2022-07-01T01:58:50;1.57;;;1.27;;
7320;SDS011;3701;49.346;8.798;2022-07-01T02:01:16;1.10;;;1.00;;
7320;SDS011;3701;49.346;8.798;2022-07-01T02:03:44;1.47;;;1.00;;
7320;SDS011;3701;49.346;8.798;2022-07-01T02:06:14;1.23;;;1.13;;
7320;SDS011;3701;49.346;8.798;2022-07-01T02:08:40;1.40;;;1.10;;
7320;SDS011;3701;49.346;8.798;2022-07-01T02:11:08;1.13;;;1.03;;
7320;SDS011;3701;49.346;8.798;2022-07-01T02:13:37;1.70;;;1.10;;
7320;SDS011;3701;49.346;8.798;2022-07-01T02:16:03;2.70;;;0.90;;
7320;SDS011;3701;49.346;8.798;2022-07-01T02:18:29;1.97;;;1.10;;
7320;SDS011;3701;49.346;8.798;2022-07-01T02:20:57;3.77;;;1.30;;
7320;SDS011;3701;49.346;8.798;2022-07-01T02:23:28;1.27;;;1.17;;
7320;SDS011;3701;49.346;8.798;2022-07-01T02:25:54;1.50;;;1.00;;
7320;SDS011;3701;49.346;8.798;2022-07-01T02:28:22;1.50;;;1.20;;
7320;SDS011;3701;49.346;8.798;2022-07-01T02:30:50;1.77;;;1.30;;
7320;SDS011;3701;49.346;8.798;2022-07-01T02:33:15;2.37;;;1.50;;
7320;SDS011;3701;49.346;8.798;2022-07-01T02:35:41;2.47;;;1.40;;
7320;SDS011;3701;49.346;8.798;2022-07-01T02:38:07;2.30;;;1.03;;
7320;SDS011;3701;49.346;8.798;2022-07-01T02:40:33;1.47;;;1.37;;
7320;SDS011;3701;49.346;8.798;2022-07-01T02:43:08;1.47;;;1.10;;
7320;SDS011;3701;49.346;8.798;2022-07-01T02:45:38;2.10;;;1.43;;
7320;SDS011;3701;49.346;8.798;2022-07-01T02:48:06;2.50;;;1.33;;
7320;SDS011;3701;49.346;8.798;2022-07-01T02:50:32;3.23;;;1.20;;
7320;SDS011;3701;49.346;8.798;2022-07-01T02:52:57;5.33;;;1.70;;
7320;SDS011;3701;49.346;8.798;2022-07-01T02:55:23;1.67;;;1.50;;
7320;SDS011;3701;49.346;8.798;2022-07-01T02:57:48;2.03;;;1.10;;
7320;SDS011;3701;49.346;8.798;2022-07-01T03:00:17;2.93;;;1.50;;
7320;SDS011;3701;49.346;8.798;2022-07-01T03:02:48;3.83;;;1.43;;
7320;SDS011;3701;49.346;8.798;2022-07-01T03:05:16;2.10;;;1.30;;
7320;SDS011;3701;49.346;8.798;2022-07-01T03:07:44;3.37;;;1.60;;
7320;SDS011;3701;49.346;8.798;2022-07-01T03:10:09;2.13;;;1.50;;
7320;SDS011;3701;49.346;8.798;2022-07-01T03:12:37;6.77;;;1.60;;
7320;SDS011;3701;49.346;8.798;2022-07-01T03:17:34;2.20;;;1.60;;
7320;SDS011;3701;49.346;8.798;2022-07-01T03:20:03;3.13;;;1.50;;
7320;SDS011;3701;49.346;8.798;2022-07-01T03:22:30;3.80;;;1.80;;
7320;SDS011;3701;49.346;8.798;2022-07-01T03:24:58;1.63;;;1.40;;
7320;SDS011;3701;49.346;8.798;2022-07-01T03:27:24;2.33;;;1.80;;
7320;SDS011;3701;49.346;8.798;2022-07-01T03:29:50;1.70;;;1.57;;
7320;SDS011;3701;49.346;8.798;2022-07-01T03:32:18;3.77;;;2.07;;
7320;SDS011;3701;49.346;8.798;2022-07-01T03:34:48;2.90;;;1.77;;
7320;SDS011;3701;49.346;8.798;2022-07-01T03:37:15;2.07;;;1.57;;
7320;SDS011;3701;49.346;8.798;2022-07-01T03:39:44;1.50;;;1.40;;
7320;SDS011;3701;49.346;8.798;2022-07-01T03:42:13;1.70;;;1.50;;
7320;SDS011;3701;49.346;8.798;2022-07-01T03:44:41;3.20;;;1.50;;
7320;SDS011;3701;49.346;8.798;2022-07-01T03:47:09;2.13;;;1.70;;
7320;SDS011;3701;49.346;8.798;2022-07-01T03:49:35;1.53;;;1.40;;
7320;SDS011;3701;49.346;8.798;2022-07-01T03:52:04;1.87;;;1.63;;
7320;SDS011;3701;49.346;8.798;2022-07-01T03:54:30;2.20;;;1.83;;
7320;SDS011;3701;49.346;8.798;2022-07-01T03:56:56;2.30;;;2.10;;
7320;SDS011;3701;49.346;8.798;2022-07-01T03:59:23;2.43;;;2.10;;
7320;SDS011;3701;49.346;8.798;2022-07-01T04:01:49;2.60;;;2.33;;
7320;SDS011;3701;49.346;8.798;2022-07-01T04:04:15;1.90;;;1.80;;
7320;SDS011;3701;49.346;8.798;2022-07-01T04:06:42;3.17;;;1.93;;
7320;SDS011;3701;49.346;8.798;2022-07-01T04:09:09;4.03;;;1.80;;
7320;SDS011;3701;49.346;8.798;2022-07-01T04:11:37;3.57;;;1.67;;
7320;SDS011;3701;49.346;8.798;2022-07-01T04:14:02;2.33;;;2.10;;
7320;SDS011;3701;49.346;8.798;2022-07-01T04:16:30;3.30;;;1.87;;
7320;SDS011;3701;49.346;8.798;2022-07-01T04:18:56;2.73;;;1.87;;
7320;SDS011;3701;49.346;8.798;2022-07-01T04:21:21;3.67;;;2.20;;
7320;SDS011;3701;49.346;8.798;2022-07-01T04:24:05;4.10;;;2.10;;
7320;SDS011;3701;49.346;8.798;2022-07-01T04:26:32;3.00;;;1.83;;
7320;SDS011;3701;49.346;8.798;2022-07-01T04:28:59;2.43;;;2.00;;
7320;SDS011;3701;49.346;8.798;2022-07-01T04:31:25;2.97;;;2.10;;
7320;SDS011;3701;49.346;8.798;2022-07-01T04:33:50;2.60;;;2.33;;
7320;SDS011;3701;49.346;8.798;2022-07-01T04:36:16;2.17;;;1.73;;
7320;SDS011;3701;49.346;8.798;2022-07-01T04:38:42;2.90;;;2.00;;
7320;SDS011;3701;49.346;8.798;2022-07-01T04:41:12;2.07;;;1.70;;
7320;SDS011;3701;49.346;8.798;2022-07-01T04:43:56;2.23;;;2.03;;
7320;SDS011;3701;49.346;8.798;2022-07-01T04:46:21;2.03;;;1.70;;
7320;SDS011;3701;49.346;8.798;2022-07-01T04:48:46;2.00;;;1.80;;
7320;SDS011;3701;49.346;8.798;2022-07-01T04:51:12;3.43;;;2.03;;
7320;SDS011;3701;49.346;8.798;2022-07-01T04:53:39;6.77;;;4.07;;
7320;SDS011;3701;49.346;8.798;2022-07-01T04:56:07;2.60;;;2.00;;
7320;SDS011;3701;49.346;8.798;2022-07-01T04:58:32;4.63;;;2.20;;
7320;SDS011;3701;49.346;8.798;2022-07-01T05:01:00;2.70;;;2.00;;
7320;SDS011;3701;49.346;8.798;2022-07-01T05:03:30;4.57;;;2.37;;
7320;SDS011;3701;49.346;8.798;2022-07-01T05:05:55;2.70;;;2.23;;
7320;SDS011;3701;49.346;8.798;2022-07-01T05:08:26;5.00;;;2.10;;
7320;SDS011;3701;49.346;8.798;2022-07-01T05:10:51;3.80;;;2.20;;
7320;SDS011;3701;49.346;8.798;2022-07-01T05:13:16;4.77;;;2.30;;
7320;SDS011;3701;49.346;8.798;2022-07-01T05:15:42;3.20;;;2.60;;
7320;SDS011;3701;49.346;8.798;2022-07-01T05:18:09;4.87;;;2.50;;
7320;SDS011;3701;49.346;8.798;2022-07-01T05:20:53;3.23;;;1.80;;
7320;SDS011;3701;49.346;8.798;2022-07-01T05:23:37;5.60;;;2.73;;
7320;SDS011;3701;49.346;8.798;2022-07-01T05:26:03;3.03;;;2.50;;
7320;SDS011;3701;49.346;8.798;2022-07-01T05:28:28;3.43;;;2.80;;
7320;SDS011;3701;49.346;8.798;2022-07-01T05:30:54;3.50;;;3.17;;
7320;SDS011;3701;49.346;8.798;2022-07-01T05:33:22;5.50;;;3.27;;
7320;SDS011;3701;49.346;8.798;2022-07-01T05:35:51;3.30;;;2.90;;
7320;SDS011;3701;49.346;8.798;2022-07-01T05:38:21;3.90;;;3.20;;
7320;SDS011;3701;49.346;8.798;2022-07-01T05:40:49;4.53;;;3.10;;
7320;SDS011;3701;49.346;8.798;2022-07-01T05:43:14;6.77;;;3.83;;
7320;SDS011;3701;49.346;8.798;2022-07-01T05:45:40;3.40;;;2.63;;
7320;SDS011;3701;49.346;8.798;2022-07-01T05:48:08;4.53;;;3.47;;
7320;SDS011;3701;49.346;8.798;2022-07-01T05:50:33;4.13;;;3.40;;
7320;SDS011;3701;49.346;8.798;2022-07-01T05:52:59;6.03;;;4.00;;
7320;SDS011;3701;49.346;8.798;2022-07-01T05:55:24;5.33;;;3.30;;
7320;SDS011;3701;49.346;8.798;2022-07-01T05:57:50;5.40;;;3.70;;
7320;SDS011;3701;49.346;8.798;2022-07-01T06:00:19;4.67;;;3.60;;
7320;SDS011;3701;49.346;8.798;2022-07-01T06:02:44;5.90;;;3.80;;
7320;SDS011;3701;49.346;8.798;2022-07-01T06:05:10;6.57;;;4.03;;
7320;SDS011;3701;49.346;8.798;2022-07-01T06:07:40;7.17;;;3.90;;
7320;SDS011;3701;49.346;8.798;2022-07-01T06:10:06;8.20;;;3.97;;
7320;SDS011;3701;49.346;8.798;2022-07-01T06:12:38;8.50;;;4.10;;
7320;SDS011;3701;49.346;8.798;2022-07-01T06:15:10;5.07;;;3.93;;
7320;SDS011;3701;49.346;8.798;2022-07-01T06:17:38;6.73;;;4.93;;
7320;SDS011;3701;49.346;8.798;2022-07-01T06:20:04;5.37;;;4.00;;
7320;SDS011;3701;49.346;8.798;2022-07-01T06:22:33;5.63;;;3.83;;
7320;SDS011;3701;49.346;8.798;2022-07-01T06:25:03;5.90;;;4.00;;
7320;SDS011;3701;49.346;8.798;2022-07-01T06:27:29;5.83;;;4.40;;
7320;SDS011;3701;49.346;8.798;2022-07-01T06:29:56;6.90;;;4.70;;
7320;SDS011;3701;49.346;8.798;2022-07-01T06:32:24;5.53;;;4.87;;
7320;SDS011;3701;49.346;8.798;2022-07-01T06:34:52;6.80;;;4.30;;
7320;SDS011;3701;49.346;8.798;2022-07-01T06:37:18;6.03;;;4.53;;
7320;SDS011;3701;49.346;8.798;2022-07-01T06:39:45;12.20;;;5.80;;
7320;SDS011;3701;49.346;8.798;2022-07-01T06:42:10;5.77;;;4.77;;
7320;SDS011;3701;49.346;8.798;2022-07-01T06:44:38;9.27;;;4.90;;
7320;SDS011;3701;49.346;8.798;2022-07-01T06:47:03;5.70;;;4.40;;
7320;SDS011;3701;49.346;8.798;2022-07-01T06:49:29;7.63;;;5.40;;
7320;SDS011;3701;49.346;8.798;2022-07-01T06:51:56;6.43;;;4.67;;
7320;SDS011;3701;49.346;8.798;2022-07-01T06:54:22;6.70;;;4.67;;
7320;SDS011;3701;49.346;8.798;2022-07-01T06:56:50;8.50;;;4.60;;
7320;SDS011;3701;49.346;8.798;2022-07-01T06:59:17;5.10;;;4.57;;
7320;SDS011;3701;49.346;8.798;2022-07-01T07:01:43;7.00;;;4.33;;
7320;SDS011;3701;49.346;8.798;2022-07-01T07:04:08;4.73;;;3.83;;
7320;SDS011;3701;49.346;8.798;2022-07-01T07:06:33;4.10;;;3.60;;
7320;SDS011;3701;49.346;8.798;2022-07-01T07:08:59;6.20;;;3.77;;
7320;SDS011;3701;49.346;8.798;2022-07-01T07:11:29;5.30;;;3.80;;
7320;SDS011;3701;49.346;8.798;2022-07-01T07:13:56;5.70;;;4.10;;
7320;SDS011;3701;49.346;8.798;2022-07-01T07:16:22;4.30;;;3.90;;
7320;SDS011;3701;49.346;8.798;2022-07-01T07:18:52;4.60;;;3.57;;
7320;SDS011;3701;49.346;8.798;2022-07-01T07:21:18;4.00;;;3.60;;
7320;SDS011;3701;49.346;8.798;2022-07-01T07:23:46;3.90;;;3.33;;
7320;SDS011;3701;49.346;8.798;2022-07-01T07:26:12;6.40;;;3.83;;
7320;SDS011;3701;49.346;8.798;2022-07-01T07:28:37;3.60;;;3.30;;
7320;SDS011;3701;49.346;8.798;2022-07-01T07:31:02;3.53;;;3.23;;
7320;SDS011;3701;49.346;8.798;2022-07-01T07:33:28;6.17;;;3.37;;
7320;SDS011;3701;49.346;8.798;2022-07-01T07:35:56;3.50;;;3.20;;
7320;SDS011;3701;49.346;8.798;2022-07-01T07:38:21;4.57;;;3.47;;
7320;SDS011;3701;49.346;8.798;2022-07-01T07:40:46;10.23;;;3.70;;
7320;SDS011;3701;49.346;8.798;2022-07-01T07:43:12;8.00;;;3.73;;
7320;SDS011;3701;49.346;8.798;2022-07-01T07:45:37;7.60;;;3.33;;
7320;SDS011;3701;49.346;8.798;2022-07-01T07:48:05;4.43;;;4.03;;
7320;SDS011;3701;49.346;8.798;2022-07-01T07:50:33;5.70;;;3.23;;
7320;SDS011;3701;49.346;8.798;2022-07-01T07:52:59;6.10;;;3.83;;
7320;SDS011;3701;49.346;8.798;2022-07-01T07:55:27;3.80;;;3.40;;
7320;SDS011;3701;49.346;8.798;2022-07-01T07:57:53;3.40;;;3.10;;
7320;SDS011;3701;49.346;8.798;2022-07-01T08:00:19;3.50;;;3.00;;
7320;SDS011;3701;49.346;8.798;2022-07-01T08:02:49;3.47;;;3.17;;
7320;SDS011;3701;49.346;8.798;2022-07-01T08:05:14;5.40;;;3.67;;
7320;SDS011;3701;49.346;8.798;2022-07-01T08:07:40;4.50;;;2.93;;
7320;SDS011;3701;49.346;8.798;2022-07-01T08:10:08;3.13;;;2.87;;
7320;SDS011;3701;49.346;8.798;2022-07-01T08:12:37;4.33;;;3.43;;
7320;SDS011;3701;49.346;8.798;2022-07-01T08:15:06;3.90;;;3.33;;
7320;SDS011;3701;49.346;8.798;2022-07-01T08:17:35;4.10;;;3.70;;
7320;SDS011;3701;49.346;8.798;2022-07-01T08:20:01;4.43;;;3.30;;
7320;SDS011;3701;49.346;8.798;2022-07-01T08:22:26;4.63;;;4.10;;
7320;SDS011;3701;49.346;8.798;2022-07-01T08:24:51;3.47;;;3.17;;
7320;SDS011;3701;49.346;8.798;2022-07-01T08:27:17;3.30;;;3.00;;
7320;SDS011;3701;49.346;8.798;2022-07-01T08:29:42;4.17;;;2.70;;
7320;SDS011;3701;49.346;8.798;2022-07-01T08:32:08;2.90;;;2.50;;
7320;SDS011;3701;49.346;8.798;2022-07-01T08:34:33;4.33;;;2.87;;
7320;SDS011;3701;49.346;8.798;2022-07-01T08:37:00;3.57;;;2.70;;
7320;SDS011;3701;49.346;8.798;2022-07-01T08:39:26;3.37;;;3.07;;
7320;SDS011;3701;49.346;8.798;2022-07-01T08:41:52;3.47;;;3.17;;
7320;SDS011;3701;49.346;8.798;2022-07-01T08:44:17;3.00;;;2.63;;
7320;SDS011;3701;49.346;8.798;2022-07-01T08:46:43;3.70;;;3.27;;
7320;SDS011;3701;49.346;8.798;2022-07-01T08:49:11;4.00;;;3.60;;
7320;SDS011;3701;49.346;8.798;2022-07-01T08:51:37;5.50;;;4.20;;
7320;SDS011;3701;49.346;8.798;2022-07-01T08:54:02;3.83;;;3.40;;
7320;SDS011;3701;49.346;8.798;2022-07-01T08:56:28;3.40;;;3.03;;
7320;SDS011;3701;49.346;8.798;2022-07-01T08:59:12;5.53;;;3.70;;
7320;SDS011;3701;49.346;8.798;2022-07-01T09:01:39;4.23;;;3.70;;
7320;SDS011;3701;49.346;8.798;2022-07-01T09:04:18;4.27;;;3.90;;
7320;SDS011;3701;49.346;8.798;2022-07-01T09:06:45;4.30;;;3.90;;
7320;SDS011;3701;49.346;8.798;2022-07-01T09:09:12;4.47;;;4.07;;
7320;SDS011;3701;49.346;8.798;2022-07-01T09:11:38;7.93;;;4.20;;
7320;SDS011;3701;49.346;8.798;2022-07-01T09:14:14;4.13;;;3.60;;
7320;SDS011;3701;49.346;8.798;2022-07-01T09:16:47;4.63;;;4.13;;
7320;SDS011;3701;49.346;8.798;2022-07-01T09:19:18;8.33;;;3.90;;
7320;SDS011;3701;49.346;8.798;2022-07-01T09:21:48;4.40;;;4.00;;
7320;SDS011;3701;49.346;8.798;2022-07-01T09:27:12;4.83;;;3.73;;
7320;SDS011;3701;49.346;8.798;2022-07-01T09:29:39;5.80;;;3.93;;
7320;SDS011;3701;49.346;8.798;2022-07-01T09:32:07;5.07;;;3.93;;
7320;SDS011;3701;49.346;8.798;2022-07-01T09:34:40;7.83;;;3.77;;
7320;SDS011;3701;49.346;8.798;2022-07-01T09:37:10;4.37;;;3.67;;
7320;SDS011;3701;49.346;8.798;2022-07-01T09:42:18;4.60;;;2.70;;
7320;SDS011;3701;49.346;8.798;2022-07-01T09:45:05;3.17;;;2.83;;
7320;SDS011;3701;49.346;8.798;2022-07-01T09:47:35;3.30;;;2.47;;
7320;SDS011;3701;49.346;8.798;2022-07-01T09:50:04;2.30;;;2.07;;
7320;SDS011;3701;49.346;8.798;2022-07-01T09:52:30;2.27;;;2.07;;
7320;SDS011;3701;49.346;8.798;2022-07-01T09:54:59;2.87;;;2.47;;
7320;SDS011;3701;49.346;8.798;2022-07-01T09:57:24;3.43;;;2.53;;
7320;SDS011;3701;49.346;8.798;2022-07-01T09:59:52;3.33;;;2.70;;
7320;SDS011;3701;49.346;8.798;2022-07-01T10:02:18;3.10;;;2.43;;
7320;SDS011;3701;49.346;8.798;2022-07-01T10:05:05;2.50;;;2.00;;
7320;SDS011;3701;49.346;8.798;2022-07-01T10:13:16;3.30;;;2.50;;
7320;SDS011;3701;49.346;8.798;2022-07-01T10:15:42;8.37;;;2.17;;
7320;SDS011;3701;49.346;8.798;2022-07-01T10:18:21;3.80;;;2.30;;
7320;SDS011;3701;49.346;8.798;2022-07-01T10:20:51;2.50;;;2.30;;
7320;SDS011;3701;49.346;8.798;2022-07-01T10:23:20;2.37;;;2.13;;
7320;SDS011;3701;49.346;8.798;2022-07-01T10:25:49;5.00;;;2.30;;
7320;SDS011;3701;49.346;8.798;2022-07-01T10:31:07;2.57;;;2.30;;
7320;SDS011;3701;49.346;8.798;2022-07-01T10:41:54;3.33;;;2.30;;
7320;SDS011;3701;49.346;8.798;2022-07-01T10:44:24;2.10;;;1.90;;
7320;SDS011;3701;49.346;8.798;2022-07-01T10:46:53;2.53;;;2.07;;
7320;SDS011;3701;49.346;8.798;2022-07-01T10:52:08;2.80;;;1.93;;
7320;SDS011;3701;49.346;8.798;2022-07-01T11:02:29;3.10;;;2.00;;
7320;SDS011;3701;49.346;8.798;2022-07-01T11:05:20;2.13;;;1.83;;
7320;SDS011;3701;49.346;8.798;2022-07-01T11:07:47;3.20;;;2.10;;
7320;SDS011;3701;49.346;8.798;2022-07-01T11:10:13;3.87;;;1.80;;
7320;SDS011;3701;49.346;8.798;2022-07-01T11:12:41;2.33;;;1.70;;
7320;SDS011;3701;49.346;8.798;2022-07-01T11:15:11;3.20;;;2.00;;
7320;SDS011;3701;49.346;8.798;2022-07-01T11:17:42;2.37;;;1.73;;
7320;SDS011;3701;49.346;8.798;2022-07-01T11:20:12;1.70;;;1.40;;
7320;SDS011;3701;49.346;8.798;2022-07-01T11:22:38;1.93;;;1.60;;
7320;SDS011;3701;49.346;8.798;2022-07-01T11:25:07;2.50;;;1.40;;
7320;SDS011;3701;49.346;8.798;2022-07-01T11:27:39;4.73;;;1.43;;
7320;SDS011;3701;49.346;8.798;2022-07-01T11:30:08;1.90;;;1.33;;
7320;SDS011;3701;49.346;8.798;2022-07-01T11:32:42;7.10;;;1.23;;
7320;SDS011;3701;49.346;8.798;2022-07-01T11:35:16;1.40;;;1.30;;
7320;SDS011;3701;49.346;8.798;2022-07-01T11:41:05;1.93;;;1.43;;
7320;SDS011;3701;49.346;8.798;2022-07-01T11:43:36;1.47;;;1.30;;
7320;SDS011;3701;49.346;8.798;2022-07-01T11:46:05;3.00;;;1.83;;
7320;SDS011;3701;49.346;8.798;2022-07-01T11:51:19;1.93;;;1.47;;
7320;SDS011;3701;49.346;8.798;2022-07-01T11:53:47;1.57;;;1.47;;
7320;SDS011;3701;49.346;8.798;2022-07-01T11:56:15;2.73;;;1.70;;
7320;SDS011;3701;49.346;8.798;2022-07-01T11:58:44;4.70;;;1.53;;
7320;SDS011;3701;49.346;8.798;2022-07-01T12:01:27;2.30;;;1.57;;
7320;SDS011;3701;49.346;8.798;2022-07-01T12:04:01;1.70;;;1.40;;
7320;SDS011;3701;49.346;8.798;2022-07-01T12:06:29;2.17;;;1.40;;
7320;SDS011;3701;49.346;8.798;2022-07-01T12:08:55;2.20;;;1.40;;
7320;SDS011;3701;49.346;8.798;2022-07-01T12:11:24;2.43;;;1.63;;
7320;SDS011;3701;49.346;8.798;2022-07-01T12:13:51;3.97;;;1.60;;
7320;SDS011;3701;49.346;8.798;2022-07-01T12:16:17;2.33;;;1.60;;
7320;SDS011;3701;49.346;8.798;2022-07-01T12:21:23;1.90;;;1.40;;
7320;SDS011;3701;49.346;8.798;2022-07-01T12:24:06;2.40;;;1.57;;
7320;SDS011;3701;49.346;8.798;2022-07-01T12:26:35;3.70;;;1.60;;
7320;SDS011;3701;49.346;8.798;2022-07-01T12:29:12;1.40;;;1.30;;
7320;SDS011;3701;49.346;8.798;2022-07-01T12:31:40;2.03;;;1.40;;
7320;SDS011;3701;49.346;8.798;2022-07-01T12:34:06;6.27;;;1.57;;
7320;SDS011;3701;49.346;8.798;2022-07-01T12:36:31;4.17;;;1.60;;
7320;SDS011;3701;49.346;8.798;2022-07-01T12:39:00;2.60;;;1.70;;
7320;SDS011;3701;49.346;8.798;2022-07-01T12:44:00;1.70;;;1.40;;
7320;SDS011;3701;49.346;8.798;2022-07-01T12:46:31;2.70;;;1.40;;
7320;SDS011;3701;49.346;8.798;2022-07-01T12:48:57;2.73;;;1.57;;
7320;SDS011;3701;49.346;8.798;2022-07-01T12:51:30;1.93;;;1.30;;
7320;SDS011;3701;49.346;8.798;2022-07-01T12:53:57;3.70;;;1.73;;
7320;SDS011;3701;49.346;8.798;2022-07-01T12:56:23;4.00;;;1.50;;
7320;SDS011;3701;49.346;8.798;2022-07-01T12:58:50;2.73;;;1.47;;
7320;SDS011;3701;49.346;8.798;2022-07-01T13:01:19;3.27;;;1.50;;
7320;SDS011;3701;49.346;8.798;2022-07-01T13:03:47;2.07;;;1.27;;
7320;SDS011;3701;49.346;8.798;2022-07-01T13:06:15;3.60;;;1.40;;
7320;SDS011;3701;49.346;8.798;2022-07-01T13:08:43;1.63;;;1.53;;
7320;SDS011;3701;49.346;8.798;2022-07-01T13:11:08;1.70;;;1.30;;
7320;SDS011;3701;49.346;8.798;2022-07-01T13:13:34;3.10;;;1.53;;
7320;SDS011;3701;49.346;8.798;2022-07-01T13:15:59;3.33;;;1.50;;
7320;SDS011;3701;49.346;8.798;2022-07-01T13:18:24;2.47;;;1.57;;
7320;SDS011;3701;49.346;8.798;2022-07-01T13:20:50;3.43;;;1.37;;
7320;SDS011;3701;49.346;8.798;2022-07-01T13:23:15;2.70;;;1.43;;
7320;SDS011;3701;49.346;8.798;2022-07-01T13:25:41;3.77;;;1.70;;
7320;SDS011;3701;49.346;8.798;2022-07-01T13:28:07;3.73;;;1.30;;
7320;SDS011;3701;49.346;8.798;2022-07-01T13:30:34;4.47;;;1.40;;
7320;SDS011;3701;49.346;8.798;2022-07-01T13:33:05;2.53;;;1.60;;
7320;SDS011;3701;49.346;8.798;2022-07-01T13:35:32;1.43;;;1.20;;
7320;SDS011;3701;49.346;8.798;2022-07-01T13:38:00;1.87;;;1.30;;
7320;SDS011;3701;49.346;8.798;2022-07-01T13:40:30;1.50;;;1.40;;
7320;SDS011;3701;49.346;8.798;2022-07-01T13:42:58;1.10;;;1.00;;
7320;SDS011;3701;49.346;8.798;2022-07-01T13:45:25;2.57;;;1.10;;
7320;SDS011;3701;49.346;8.798;2022-07-01T13:47:50;1.80;;;1.37;;
7320;SDS011;3701;49.346;8.798;2022-07-01T13:50:18;2.17;;;1.20;;
7320;SDS011;3701;49.346;8.798;2022-07-01T13:52:47;1.30;;;1.10;;
7320;SDS011;3701;49.346;8.798;2022-07-01T13:55:13;2.60;;;1.10;;
7320;SDS011;3701;49.346;8.798;2022-07-01T13:57:41;1.50;;;1.00;;
7320;SDS011;3701;49.346;8.798;2022-07-01T14:00:06;1.73;;;1.10;;
7320;SDS011;3701;49.346;8.798;2022-07-01T14:02:35;3.77;;;1.07;;
7320;SDS011;3701;49.346;8.798;2022-07-01T14:05:00;1.20;;;1.10;;
7320;SDS011;3701;49.346;8.798;2022-07-01T14:07:26;2.40;;;1.20;;
7320;SDS011;3701;49.346;8.798;2022-07-01T14:09:53;2.23;;;1.10;;
7320;SDS011;3701;49.346;8.798;2022-07-01T14:12:19;1.60;;;1.10;;
7320;SDS011;3701;49.346;8.798;2022-07-01T14:14:47;1.90;;;1.10;;
7320;SDS011;3701;49.346;8.798;2022-07-01T14:17:12;3.57;;;1.07;;
7320;SDS011;3701;49.346;8.798;2022-07-01T14:19:41;1.23;;;0.93;;
7320;SDS011;3701;49.346;8.798;2022-07-01T14:22:06;4.47;;;1.13;;
7320;SDS011;3701;49.346;8.798;2022-07-01T14:24:34;1.10;;;1.00;;
7320;SDS011;3701;49.346;8.798;2022-07-01T14:27:02;1.27;;;1.00;;
7320;SDS011;3701;49.346;8.798;2022-07-01T14:29:30;1.80;;;0.97;;
7320;SDS011;3701;49.346;8.798;2022-07-01T14:32:00;4.20;;;1.00;;
7320;SDS011;3701;49.346;8.798;2022-07-01T14:34:26;1.40;;;1.30;;
7320;SDS011;3701;49.346;8.798;2022-07-01T14:36:54;1.20;;;1.10;;
7320;SDS011;3701;49.346;8.798;2022-07-01T14:39:19;1.87;;;1.03;;
7320;SDS011;3701;49.346;8.798;2022-07-01T14:41:47;1.57;;;1.10;;
7320;SDS011;3701;49.346;8.798;2022-07-01T14:44:16;1.50;;;1.20;;
7320;SDS011;3701;49.346;8.798;2022-07-01T14:46:46;2.37;;;1.57;;
7320;SDS011;3701;49.346;8.798;2022-07-01T14:49:12;2.60;;;1.20;;
7320;SDS011;3701;49.346;8.798;2022-07-01T14:51:42;3.73;;;1.20;;
7320;SDS011;3701;49.346;8.798;2022-07-01T14:54:08;1.60;;;0.90;;
7320;SDS011;3701;49.346;8.798;2022-07-01T14:56:33;5.47;;;1.23;;
7320;SDS011;3701;49.346;8.798;2022-07-01T14:58:58;2.50;;;1.00;;
7320;SDS011;3701;49.346;8.798;2022-07-01T15:01:24;1.67;;;1.07;;
7320;SDS011;3701;49.346;8.798;2022-07-01T15:03:51;2.03;;;1.00;;
7320;SDS011;3701;49.346;8.798;2022-07-01T15:06:19;4.27;;;0.83;;
7320;SDS011;3701;49.346;8.798;2022-07-01T15:08:47;1.37;;;0.80;;
7320;SDS011;3701;49.346;8.798;2022-07-01T15:11:14;0.93;;;0.80;;
7320;SDS011;3701;49.346;8.798;2022-07-01T15:13:39;1.77;;;0.90;;
7320;SDS011;3701;49.346;8.798;2022-07-01T15:16:05;1.43;;;1.00;;
7320;SDS011;3701;49.346;8.798;2022-07-01T15:18:33;0.80;;;0.80;;
7320;SDS011;3701;49.346;8.798;2022-07-01T15:20:59;2.10;;;0.90;;
7320;SDS011;3701;49.346;8.798;2022-07-01T15:23:25;2.50;;;0.93;;
7320;SDS011;3701;49.346;8.798;2022-07-01T15:25:54;2.67;;;1.00;;
7320;SDS011;3701;49.346;8.798;2022-07-01T15:28:19;1.83;;;1.00;;
7320;SDS011;3701;49.346;8.798;2022-07-01T15:30:46;3.07;;;1.03;;
7320;SDS011;3701;49.346;8.798;2022-07-01T15:33:14;2.03;;;0.80;;
7320;SDS011;3701;49.346;8.798;2022-07-01T15:35:43;1.43;;;1.00;;
7320;SDS011;3701;49.346;8.798;2022-07-01T15:38:08;1.00;;;0.87;;
7320;SDS011;3701;49.346;8.798;2022-07-01T15:40:36;1.80;;;0.97;;
7320;SDS011;3701;49.346;8.798;2022-07-01T15:43:01;2.20;;;1.00;;
7320;SDS011;3701;49.346;8.798;2022-07-01T15:45:30;1.67;;;0.90;;
7320;SDS011;3701;49.346;8.798;2022-07-01T15:47:55;1.20;;;0.83;;
7320;SDS011;3701;49.346;8.798;2022-07-01T15:50:37;1.33;;;0.90;;
7320;SDS011;3701;49.346;8.798;2022-07-01T15:53:07;1.50;;;0.97;;
7320;SDS011;3701;49.346;8.798;2022-07-01T15:55:36;0.83;;;0.80;;
7320;SDS011;3701;49.346;8.798;2022-07-01T15:58:06;0.70;;;0.63;;
7320;SDS011;3701;49.346;8.798;2022-07-01T16:00:37;2.83;;;1.20;;
7320;SDS011;3701;49.346;8.798;2022-07-01T16:03:08;1.70;;;0.97;;
7320;SDS011;3701;49.346;8.798;2022-07-01T16:05:34;2.20;;;1.13;;